Terminal Aerodrome Forecast
Issued by NWS Wilmington, OH

Current Version | Previous Version | Graphics & Text | Print | Product List | Glossary On
Versions: 1 2 3 4 5 6 7 8 9 10 11 12 13 14 15 16
389
FTUS41 KILN 200539
TAFDAY
TAF
KDAY 200539Z 2006/2106 22007KT P6SM SCT080
     FM200900 25007KT P6SM SKC
     FM201500 27011KT P6SM FEW050
     FM210000 22006KT P6SM FEW070=

USA.gov is the U.S. government's official web portal to all federal, state and local government web resources and services.